sensor_id;sensor_type;location;lat;lon;timestamp;P1;durP1;ratioP1;P2;durP2;ratioP2
7110;SDS011;3597;42.650;23.386;2022-12-08T00:00:21;3.07;;;2.97;;
7110;SDS011;3597;42.650;23.386;2022-12-08T00:02:47;2.77;;;2.67;;
7110;SDS011;3597;42.650;23.386;2022-12-08T00:05:12;3.10;;;2.90;;
7110;SDS011;3597;42.650;23.386;2022-12-08T00:07:56;3.07;;;2.87;;
7110;SDS011;3597;42.650;23.386;2022-12-08T00:10:43;2.90;;;2.80;;
7110;SDS011;3597;42.650;23.386;2022-12-08T00:13:09;3.77;;;3.57;;
7110;SDS011;3597;42.650;23.386;2022-12-08T00:15:34;5.87;;;4.60;;
7110;SDS011;3597;42.650;23.386;2022-12-08T00:17:59;6.33;;;5.03;;
7110;SDS011;3597;42.650;23.386;2022-12-08T00:20:25;4.57;;;4.17;;
7110;SDS011;3597;42.650;23.386;2022-12-08T00:22:50;4.37;;;4.20;;
7110;SDS011;3597;42.650;23.386;2022-12-08T00:25:16;5.60;;;5.10;;
7110;SDS011;3597;42.650;23.386;2022-12-08T00:27:41;4.83;;;4.20;;
7110;SDS011;3597;42.650;23.386;2022-12-08T00:30:07;4.87;;;4.57;;
7110;SDS011;3597;42.650;23.386;2022-12-08T00:32:32;4.47;;;4.17;;
7110;SDS011;3597;42.650;23.386;2022-12-08T00:34:58;4.47;;;4.17;;
7110;SDS011;3597;42.650;23.386;2022-12-08T00:37:23;5.20;;;4.80;;
7110;SDS011;3597;42.650;23.386;2022-12-08T00:39:48;4.90;;;4.60;;
7110;SDS011;3597;42.650;23.386;2022-12-08T00:42:14;5.00;;;4.60;;
7110;SDS011;3597;42.650;23.386;2022-12-08T00:44:40;4.50;;;4.10;;
7110;SDS011;3597;42.650;23.386;2022-12-08T00:47:06;7.40;;;4.63;;
7110;SDS011;3597;42.650;23.386;2022-12-08T00:49:31;4.40;;;4.20;;
7110;SDS011;3597;42.650;23.386;2022-12-08T00:51:57;5.67;;;5.27;;
7110;SDS011;3597;42.650;23.386;2022-12-08T00:54:22;4.93;;;4.53;;
7110;SDS011;3597;42.650;23.386;2022-12-08T00:56:48;5.30;;;4.90;;
7110;SDS011;3597;42.650;23.386;2022-12-08T00:59:13;4.50;;;4.20;;
7110;SDS011;3597;42.650;23.386;2022-12-08T01:01:39;3.97;;;3.77;;
7110;SDS011;3597;42.650;23.386;2022-12-08T01:04:09;5.53;;;5.10;;
7110;SDS011;3597;42.650;23.386;2022-12-08T01:06:35;5.80;;;5.30;;
7110;SDS011;3597;42.650;23.386;2022-12-08T01:09:01;5.67;;;5.17;;
7110;SDS011;3597;42.650;23.386;2022-12-08T01:11:27;4.83;;;4.53;;
7110;SDS011;3597;42.650;23.386;2022-12-08T01:13:52;5.47;;;4.70;;
7110;SDS011;3597;42.650;23.386;2022-12-08T01:16:21;6.07;;;4.90;;
7110;SDS011;3597;42.650;23.386;2022-12-08T01:18:51;5.17;;;4.67;;
7110;SDS011;3597;42.650;23.386;2022-12-08T01:21:17;5.13;;;4.70;;
7110;SDS011;3597;42.650;23.386;2022-12-08T01:23:42;5.13;;;4.63;;
7110;SDS011;3597;42.650;23.386;2022-12-08T01:26:10;5.13;;;4.63;;
7110;SDS011;3597;42.650;23.386;2022-12-08T01:28:37;6.57;;;4.30;;
7110;SDS011;3597;42.650;23.386;2022-12-08T01:31:02;4.53;;;4.33;;
7110;SDS011;3597;42.650;23.386;2022-12-08T01:33:28;5.00;;;4.60;;
7110;SDS011;3597;42.650;23.386;2022-12-08T01:35:53;5.87;;;4.80;;
7110;SDS011;3597;42.650;23.386;2022-12-08T01:38:19;4.63;;;4.43;;
7110;SDS011;3597;42.650;23.386;2022-12-08T01:40:45;5.27;;;4.87;;
7110;SDS011;3597;42.650;23.386;2022-12-08T01:43:14;5.10;;;4.70;;
7110;SDS011;3597;42.650;23.386;2022-12-08T01:45:41;4.67;;;4.40;;
7110;SDS011;3597;42.650;23.386;2022-12-08T01:48:08;4.90;;;4.60;;
7110;SDS011;3597;42.650;23.386;2022-12-08T01:50:37;4.80;;;4.50;;
7110;SDS011;3597;42.650;23.386;2022-12-08T01:53:14;7.40;;;4.70;;
7110;SDS011;3597;42.650;23.386;2022-12-08T01:55:44;5.00;;;4.37;;
7110;SDS011;3597;42.650;23.386;2022-12-08T01:58:17;5.47;;;5.17;;
7110;SDS011;3597;42.650;23.386;2022-12-08T02:00:45;5.60;;;5.20;;
7110;SDS011;3597;42.650;23.386;2022-12-08T02:03:16;4.47;;;4.20;;
7110;SDS011;3597;42.650;23.386;2022-12-08T02:05:45;4.80;;;4.50;;
7110;SDS011;3597;42.650;23.386;2022-12-08T02:08:11;5.53;;;3.80;;
7110;SDS011;3597;42.650;23.386;2022-12-08T02:10:38;5.00;;;4.53;;
7110;SDS011;3597;42.650;23.386;2022-12-08T02:13:05;3.20;;;3.10;;
7110;SDS011;3597;42.650;23.386;2022-12-08T02:15:46;4.10;;;3.90;;
7110;SDS011;3597;42.650;23.386;2022-12-08T02:20:53;3.33;;;3.13;;
7110;SDS011;3597;42.650;23.386;2022-12-08T02:29:04;3.03;;;2.83;;
7110;SDS011;3597;42.650;23.386;2022-12-08T02:31:54;3.20;;;3.10;;
7110;SDS011;3597;42.650;23.386;2022-12-08T02:34:39;3.23;;;3.03;;
7110;SDS011;3597;42.650;23.386;2022-12-08T02:45:18;1.97;;;1.97;;
7110;SDS011;3597;42.650;23.386;2022-12-08T02:47:47;2.40;;;2.23;;
7110;SDS011;3597;42.650;23.386;2022-12-08T02:50:12;2.20;;;2.20;;
7110;SDS011;3597;42.650;23.386;2022-12-08T02:52:40;2.43;;;2.30;;
7110;SDS011;3597;42.650;23.386;2022-12-08T02:58:20;2.90;;;2.80;;
7110;SDS011;3597;42.650;23.386;2022-12-08T03:00:59;3.37;;;3.20;;
7110;SDS011;3597;42.650;23.386;2022-12-08T03:03:45;5.43;;;4.10;;
7110;SDS011;3597;42.650;23.386;2022-12-08T03:09:14;4.03;;;3.83;;
7110;SDS011;3597;42.650;23.386;2022-12-08T03:14:27;3.50;;;3.37;;
7110;SDS011;3597;42.650;23.386;2022-12-08T03:16:54;4.50;;;4.20;;
7110;SDS011;3597;42.650;23.386;2022-12-08T03:19:22;3.30;;;3.20;;
7110;SDS011;3597;42.650;23.386;2022-12-08T03:21:52;3.57;;;3.37;;
7110;SDS011;3597;42.650;23.386;2022-12-08T03:24:24;3.90;;;3.73;;
7110;SDS011;3597;42.650;23.386;2022-12-08T03:26:51;3.37;;;3.17;;
7110;SDS011;3597;42.650;23.386;2022-12-08T03:29:21;5.93;;;3.30;;
7110;SDS011;3597;42.650;23.386;2022-12-08T03:31:51;3.30;;;3.20;;
7110;SDS011;3597;42.650;23.386;2022-12-08T03:34:22;3.37;;;3.20;;
7110;SDS011;3597;42.650;23.386;2022-12-08T03:36:50;3.30;;;3.20;;
7110;SDS011;3597;42.650;23.386;2022-12-08T03:39:15;3.50;;;3.40;;
7110;SDS011;3597;42.650;23.386;2022-12-08T03:41:41;3.83;;;3.53;;
7110;SDS011;3597;42.650;23.386;2022-12-08T03:44:06;3.23;;;3.13;;
7110;SDS011;3597;42.650;23.386;2022-12-08T03:46:31;3.23;;;3.03;;
7110;SDS011;3597;42.650;23.386;2022-12-08T03:48:57;2.47;;;2.30;;
7110;SDS011;3597;42.650;23.386;2022-12-08T03:51:22;2.40;;;2.30;;
7110;SDS011;3597;42.650;23.386;2022-12-08T03:53:48;3.13;;;3.03;;
7110;SDS011;3597;42.650;23.386;2022-12-08T03:56:24;3.00;;;2.80;;
7110;SDS011;3597;42.650;23.386;2022-12-08T03:58:52;2.47;;;2.40;;
7110;SDS011;3597;42.650;23.386;2022-12-08T04:01:18;3.20;;;3.00;;
7110;SDS011;3597;42.650;23.386;2022-12-08T04:03:43;2.77;;;2.67;;
7110;SDS011;3597;42.650;23.386;2022-12-08T04:06:08;3.10;;;2.90;;
7110;SDS011;3597;42.650;23.386;2022-12-08T04:08:34;3.60;;;3.50;;
7110;SDS011;3597;42.650;23.386;2022-12-08T04:10:59;2.60;;;2.50;;
7110;SDS011;3597;42.650;23.386;2022-12-08T04:13:25;2.53;;;2.43;;
7110;SDS011;3597;42.650;23.386;2022-12-08T04:15:50;2.77;;;2.60;;
7110;SDS011;3597;42.650;23.386;2022-12-08T04:18:15;2.67;;;2.57;;
7110;SDS011;3597;42.650;23.386;2022-12-08T04:20:42;2.43;;;2.33;;
7110;SDS011;3597;42.650;23.386;2022-12-08T04:23:08;2.00;;;2.00;;
7110;SDS011;3597;42.650;23.386;2022-12-08T04:25:34;2.50;;;2.47;;
7110;SDS011;3597;42.650;23.386;2022-12-08T04:28:00;2.60;;;2.50;;
7110;SDS011;3597;42.650;23.386;2022-12-08T04:30:26;2.30;;;2.20;;
7110;SDS011;3597;42.650;23.386;2022-12-08T04:32:51;1.90;;;1.90;;
7110;SDS011;3597;42.650;23.386;2022-12-08T04:35:16;2.80;;;2.70;;
7110;SDS011;3597;42.650;23.386;2022-12-08T04:37:42;2.07;;;2.07;;
7110;SDS011;3597;42.650;23.386;2022-12-08T04:40:08;2.00;;;2.00;;
7110;SDS011;3597;42.650;23.386;2022-12-08T04:42:34;2.20;;;2.20;;
7110;SDS011;3597;42.650;23.386;2022-12-08T04:45:00;2.60;;;2.50;;
7110;SDS011;3597;42.650;23.386;2022-12-08T04:47:25;1.63;;;1.63;;
7110;SDS011;3597;42.650;23.386;2022-12-08T04:49:50;2.90;;;2.80;;
7110;SDS011;3597;42.650;23.386;2022-12-08T04:52:16;1.70;;;1.70;;
7110;SDS011;3597;42.650;23.386;2022-12-08T04:54:41;2.03;;;2.03;;
7110;SDS011;3597;42.650;23.386;2022-12-08T04:57:06;2.13;;;2.03;;
7110;SDS011;3597;42.650;23.386;2022-12-08T04:59:32;2.27;;;2.23;;
7110;SDS011;3597;42.650;23.386;2022-12-08T05:01:57;2.37;;;2.37;;
7110;SDS011;3597;42.650;23.386;2022-12-08T05:04:24;1.97;;;1.87;;
7110;SDS011;3597;42.650;23.386;2022-12-08T05:06:49;2.33;;;2.23;;
7110;SDS011;3597;42.650;23.386;2022-12-08T05:09:14;2.40;;;2.37;;
7110;SDS011;3597;42.650;23.386;2022-12-08T05:11:40;2.53;;;2.43;;
7110;SDS011;3597;42.650;23.386;2022-12-08T05:14:09;2.07;;;2.07;;
7110;SDS011;3597;42.650;23.386;2022-12-08T05:16:35;2.10;;;2.10;;
7110;SDS011;3597;42.650;23.386;2022-12-08T05:19:01;2.70;;;2.60;;
7110;SDS011;3597;42.650;23.386;2022-12-08T05:21:26;2.07;;;2.07;;
7110;SDS011;3597;42.650;23.386;2022-12-08T05:23:52;2.40;;;2.30;;
7110;SDS011;3597;42.650;23.386;2022-12-08T05:26:17;2.20;;;2.20;;
7110;SDS011;3597;42.650;23.386;2022-12-08T05:28:43;2.23;;;2.13;;
7110;SDS011;3597;42.650;23.386;2022-12-08T05:31:08;2.13;;;2.13;;
7110;SDS011;3597;42.650;23.386;2022-12-08T05:33:35;2.20;;;2.17;;
7110;SDS011;3597;42.650;23.386;2022-12-08T05:36:00;2.30;;;2.30;;
7110;SDS011;3597;42.650;23.386;2022-12-08T05:38:25;1.97;;;1.97;;
7110;SDS011;3597;42.650;23.386;2022-12-08T05:40:50;3.03;;;2.93;;
7110;SDS011;3597;42.650;23.386;2022-12-08T05:43:16;3.13;;;3.03;;
7110;SDS011;3597;42.650;23.386;2022-12-08T05:45:41;4.30;;;4.00;;
7110;SDS011;3597;42.650;23.386;2022-12-08T05:48:06;3.93;;;3.73;;
7110;SDS011;3597;42.650;23.386;2022-12-08T05:50:32;3.50;;;3.40;;
7110;SDS011;3597;42.650;23.386;2022-12-08T05:52:58;5.57;;;3.40;;
7110;SDS011;3597;42.650;23.386;2022-12-08T05:55:23;4.07;;;3.73;;
7110;SDS011;3597;42.650;23.386;2022-12-08T05:57:48;3.37;;;3.03;;
7110;SDS011;3597;42.650;23.386;2022-12-08T06:00:14;3.90;;;3.67;;
7110;SDS011;3597;42.650;23.386;2022-12-08T06:02:39;3.97;;;3.77;;
7110;SDS011;3597;42.650;23.386;2022-12-08T06:05:05;3.43;;;3.13;;
7110;SDS011;3597;42.650;23.386;2022-12-08T06:07:31;3.50;;;3.30;;
7110;SDS011;3597;42.650;23.386;2022-12-08T06:09:56;4.10;;;3.87;;
7110;SDS011;3597;42.650;23.386;2022-12-08T06:12:21;3.20;;;3.03;;
7110;SDS011;3597;42.650;23.386;2022-12-08T06:14:48;3.40;;;3.20;;
7110;SDS011;3597;42.650;23.386;2022-12-08T06:17:13;3.73;;;3.43;;
7110;SDS011;3597;42.650;23.386;2022-12-08T06:19:39;3.23;;;3.03;;
7110;SDS011;3597;42.650;23.386;2022-12-08T06:22:04;3.17;;;2.93;;
7110;SDS011;3597;42.650;23.386;2022-12-08T06:24:29;2.80;;;2.70;;
7110;SDS011;3597;42.650;23.386;2022-12-08T06:26:55;2.70;;;2.67;;
7110;SDS011;3597;42.650;23.386;2022-12-08T06:29:20;3.17;;;2.97;;
7110;SDS011;3597;42.650;23.386;2022-12-08T06:31:45;3.83;;;3.63;;
7110;SDS011;3597;42.650;23.386;2022-12-08T06:34:11;3.63;;;3.53;;
7110;SDS011;3597;42.650;23.386;2022-12-08T06:36:36;3.53;;;3.33;;
7110;SDS011;3597;42.650;23.386;2022-12-08T06:39:02;3.70;;;3.47;;
7110;SDS011;3597;42.650;23.386;2022-12-08T06:41:27;3.77;;;3.57;;
7110;SDS011;3597;42.650;23.386;2022-12-08T06:43:56;3.73;;;3.53;;
7110;SDS011;3597;42.650;23.386;2022-12-08T06:46:21;4.07;;;3.87;;
7110;SDS011;3597;42.650;23.386;2022-12-08T06:48:47;4.67;;;4.27;;
7110;SDS011;3597;42.650;23.386;2022-12-08T06:51:15;4.93;;;4.57;;
7110;SDS011;3597;42.650;23.386;2022-12-08T06:53:42;5.30;;;5.00;;
7110;SDS011;3597;42.650;23.386;2022-12-08T06:56:08;5.93;;;5.07;;
7110;SDS011;3597;42.650;23.386;2022-12-08T06:58:34;6.40;;;5.37;;
7110;SDS011;3597;42.650;23.386;2022-12-08T07:01:03;4.70;;;4.37;;
7110;SDS011;3597;42.650;23.386;2022-12-08T07:03:33;7.30;;;4.73;;
7110;SDS011;3597;42.650;23.386;2022-12-08T07:05:59;4.70;;;4.50;;
7110;SDS011;3597;42.650;23.386;2022-12-08T07:08:24;4.77;;;4.40;;
7110;SDS011;3597;42.650;23.386;2022-12-08T07:10:49;3.90;;;3.57;;
7110;SDS011;3597;42.650;23.386;2022-12-08T07:13:15;4.43;;;4.23;;
7110;SDS011;3597;42.650;23.386;2022-12-08T07:15:40;4.77;;;4.47;;
7110;SDS011;3597;42.650;23.386;2022-12-08T07:18:05;4.40;;;3.77;;
7110;SDS011;3597;42.650;23.386;2022-12-08T07:20:31;4.73;;;4.47;;
7110;SDS011;3597;42.650;23.386;2022-12-08T07:22:56;4.23;;;3.97;;
7110;SDS011;3597;42.650;23.386;2022-12-08T07:25:21;3.90;;;3.80;;
7110;SDS011;3597;42.650;23.386;2022-12-08T07:27:47;4.47;;;4.17;;
7110;SDS011;3597;42.650;23.386;2022-12-08T07:30:15;4.23;;;3.97;;
7110;SDS011;3597;42.650;23.386;2022-12-08T07:32:41;3.80;;;3.60;;
7110;SDS011;3597;42.650;23.386;2022-12-08T07:35:06;3.73;;;3.43;;
7110;SDS011;3597;42.650;23.386;2022-12-08T07:37:33;4.10;;;3.80;;
7110;SDS011;3597;42.650;23.386;2022-12-08T07:39:58;4.03;;;3.83;;
7110;SDS011;3597;42.650;23.386;2022-12-08T07:42:24;3.50;;;3.40;;
7110;SDS011;3597;42.650;23.386;2022-12-08T07:44:49;3.47;;;3.27;;
7110;SDS011;3597;42.650;23.386;2022-12-08T07:47:15;2.73;;;2.63;;
7110;SDS011;3597;42.650;23.386;2022-12-08T07:49:40;3.70;;;3.50;;
7110;SDS011;3597;42.650;23.386;2022-12-08T07:52:05;4.00;;;3.80;;
7110;SDS011;3597;42.650;23.386;2022-12-08T07:54:31;3.93;;;3.73;;
7110;SDS011;3597;42.650;23.386;2022-12-08T07:56:56;4.13;;;3.93;;
7110;SDS011;3597;42.650;23.386;2022-12-08T07:59:22;4.20;;;4.00;;
7110;SDS011;3597;42.650;23.386;2022-12-08T08:01:47;4.27;;;4.00;;
7110;SDS011;3597;42.650;23.386;2022-12-08T08:04:14;4.33;;;4.07;;
7110;SDS011;3597;42.650;23.386;2022-12-08T08:06:39;4.07;;;3.77;;
7110;SDS011;3597;42.650;23.386;2022-12-08T08:09:05;4.40;;;4.20;;
7110;SDS011;3597;42.650;23.386;2022-12-08T08:11:30;4.77;;;4.47;;
7110;SDS011;3597;42.650;23.386;2022-12-08T08:13:56;5.30;;;4.50;;
7110;SDS011;3597;42.650;23.386;2022-12-08T08:16:21;4.73;;;4.33;;
7110;SDS011;3597;42.650;23.386;2022-12-08T08:18:47;4.67;;;4.37;;
7110;SDS011;3597;42.650;23.386;2022-12-08T08:21:14;5.17;;;4.87;;
7110;SDS011;3597;42.650;23.386;2022-12-08T08:23:39;4.73;;;4.20;;
7110;SDS011;3597;42.650;23.386;2022-12-08T08:26:05;5.60;;;5.27;;
7110;SDS011;3597;42.650;23.386;2022-12-08T08:28:30;5.53;;;5.23;;
7110;SDS011;3597;42.650;23.386;2022-12-08T08:30:57;4.17;;;3.97;;
7110;SDS011;3597;42.650;23.386;2022-12-08T08:33:22;4.47;;;4.17;;
7110;SDS011;3597;42.650;23.386;2022-12-08T08:35:48;6.43;;;5.97;;
7110;SDS011;3597;42.650;23.386;2022-12-08T08:38:13;5.43;;;5.13;;
7110;SDS011;3597;42.650;23.386;2022-12-08T08:40:39;4.73;;;4.43;;
7110;SDS011;3597;42.650;23.386;2022-12-08T08:43:04;4.83;;;4.63;;
7110;SDS011;3597;42.650;23.386;2022-12-08T08:45:31;5.23;;;4.93;;
7110;SDS011;3597;42.650;23.386;2022-12-08T08:47:57;7.20;;;6.63;;
7110;SDS011;3597;42.650;23.386;2022-12-08T08:50:22;9.17;;;8.40;;
7110;SDS011;3597;42.650;23.386;2022-12-08T08:52:48;4.93;;;4.73;;
7110;SDS011;3597;42.650;23.386;2022-12-08T08:55:14;5.60;;;5.10;;
7110;SDS011;3597;42.650;23.386;2022-12-08T08:57:39;6.07;;;5.77;;
7110;SDS011;3597;42.650;23.386;2022-12-08T09:00:05;6.10;;;5.57;;
7110;SDS011;3597;42.650;23.386;2022-12-08T09:02:34;6.30;;;5.90;;
7110;SDS011;3597;42.650;23.386;2022-12-08T09:05:00;4.70;;;4.40;;
7110;SDS011;3597;42.650;23.386;2022-12-08T09:07:25;4.60;;;4.30;;
7110;SDS011;3597;42.650;23.386;2022-12-08T09:09:50;3.93;;;3.80;;
7110;SDS011;3597;42.650;23.386;2022-12-08T09:12:16;3.97;;;3.70;;
7110;SDS011;3597;42.650;23.386;2022-12-08T09:14:41;2.73;;;2.63;;
7110;SDS011;3597;42.650;23.386;2022-12-08T09:17:07;2.30;;;2.20;;
7110;SDS011;3597;42.650;23.386;2022-12-08T09:19:32;2.70;;;2.60;;
7110;SDS011;3597;42.650;23.386;2022-12-08T09:21:58;3.73;;;3.53;;
7110;SDS011;3597;42.650;23.386;2022-12-08T09:24:23;4.27;;;3.40;;
7110;SDS011;3597;42.650;23.386;2022-12-08T09:26:49;2.87;;;2.47;;
7110;SDS011;3597;42.650;23.386;2022-12-08T09:29:14;5.07;;;4.70;;
7110;SDS011;3597;42.650;23.386;2022-12-08T09:31:41;3.73;;;3.63;;
7110;SDS011;3597;42.650;23.386;2022-12-08T09:34:06;4.60;;;4.30;;
7110;SDS011;3597;42.650;23.386;2022-12-08T09:36:31;3.93;;;3.63;;
7110;SDS011;3597;42.650;23.386;2022-12-08T09:38:57;3.43;;;3.33;;
7110;SDS011;3597;42.650;23.386;2022-12-08T09:41:27;5.07;;;4.53;;
7110;SDS011;3597;42.650;23.386;2022-12-08T09:47:21;3.77;;;3.57;;
7110;SDS011;3597;42.650;23.386;2022-12-08T09:49:51;3.33;;;3.23;;
7110;SDS011;3597;42.650;23.386;2022-12-08T09:52:54;4.03;;;3.83;;
7110;SDS011;3597;42.650;23.386;2022-12-08T09:55:23;4.23;;;3.70;;
7110;SDS011;3597;42.650;23.386;2022-12-08T09:57:56;4.90;;;4.00;;
7110;SDS011;3597;42.650;23.386;2022-12-08T10:00:25;3.00;;;2.90;;
7110;SDS011;3597;42.650;23.386;2022-12-08T10:02:50;3.87;;;3.70;;
7110;SDS011;3597;42.650;23.386;2022-12-08T10:05:16;3.57;;;3.13;;
7110;SDS011;3597;42.650;23.386;2022-12-08T10:07:46;3.03;;;2.93;;
7110;SDS011;3597;42.650;23.386;2022-12-08T10:10:17;4.13;;;3.93;;
7110;SDS011;3597;42.650;23.386;2022-12-08T10:12:54;4.03;;;3.83;;
7110;SDS011;3597;42.650;23.386;2022-12-08T10:18:10;4.77;;;4.13;;
7110;SDS011;3597;42.650;23.386;2022-12-08T10:20:43;5.03;;;4.70;;
7110;SDS011;3597;42.650;23.386;2022-12-08T10:25:40;6.17;;;5.67;;
7110;SDS011;3597;42.650;23.386;2022-12-08T10:28:09;5.63;;;5.23;;
7110;SDS011;3597;42.650;23.386;2022-12-08T10:30:35;5.10;;;4.80;;
7110;SDS011;3597;42.650;23.386;2022-12-08T10:33:00;6.23;;;4.73;;
7110;SDS011;3597;42.650;23.386;2022-12-08T10:35:41;5.57;;;5.30;;
7110;SDS011;3597;42.650;23.386;2022-12-08T10:38:08;5.57;;;5.27;;
7110;SDS011;3597;42.650;23.386;2022-12-08T10:40:43;4.53;;;4.20;;
7110;SDS011;3597;42.650;23.386;2022-12-08T10:43:13;5.57;;;5.27;;
7110;SDS011;3597;42.650;23.386;2022-12-08T10:45:40;4.77;;;4.47;;
7110;SDS011;3597;42.650;23.386;2022-12-08T10:55:38;4.60;;;4.40;;
7110;SDS011;3597;42.650;23.386;2022-12-08T11:01:20;4.63;;;4.30;;
7110;SDS011;3597;42.650;23.386;2022-12-08T11:06:19;4.67;;;4.47;;
7110;SDS011;3597;42.650;23.386;2022-12-08T11:08:50;4.63;;;4.43;;
7110;SDS011;3597;42.650;23.386;2022-12-08T11:11:18;4.80;;;4.60;;
7110;SDS011;3597;42.650;23.386;2022-12-08T11:13:44;5.03;;;4.63;;
7110;SDS011;3597;42.650;23.386;2022-12-08T11:16:12;5.17;;;4.43;;
7110;SDS011;3597;42.650;23.386;2022-12-08T11:18:40;4.17;;;3.87;;
7110;SDS011;3597;42.650;23.386;2022-12-08T11:21:15;5.37;;;5.07;;
7110;SDS011;3597;42.650;23.386;2022-12-08T11:23:45;3.73;;;3.63;;
7110;SDS011;3597;42.650;23.386;2022-12-08T11:26:14;3.87;;;3.70;;
7110;SDS011;3597;42.650;23.386;2022-12-08T11:28:44;3.80;;;3.60;;
7110;SDS011;3597;42.650;23.386;2022-12-08T11:31:15;4.53;;;4.23;;
7110;SDS011;3597;42.650;23.386;2022-12-08T11:34:02;3.90;;;3.70;;
7110;SDS011;3597;42.650;23.386;2022-12-08T11:36:29;4.00;;;3.70;;
7110;SDS011;3597;42.650;23.386;2022-12-08T11:38:55;3.20;;;3.10;;
7110;SDS011;3597;42.650;23.386;2022-12-08T11:41:23;3.90;;;3.60;;
7110;SDS011;3597;42.650;23.386;2022-12-08T11:46:54;3.20;;;3.00;;
7110;SDS011;3597;42.650;23.386;2022-12-08T11:49:38;9.03;;;3.37;;
7110;SDS011;3597;42.650;23.386;2022-12-08T11:54:54;3.57;;;3.47;;
7110;SDS011;3597;42.650;23.386;2022-12-08T11:57:25;4.30;;;3.50;;
7110;SDS011;3597;42.650;23.386;2022-12-08T11:59:51;4.43;;;4.27;;
7110;SDS011;3597;42.650;23.386;2022-12-08T12:02:19;6.00;;;3.20;;
7110;SDS011;3597;42.650;23.386;2022-12-08T12:24:00;3.20;;;3.00;;
7110;SDS011;3597;42.650;23.386;2022-12-08T12:26:30;4.23;;;4.03;;
7110;SDS011;3597;42.650;23.386;2022-12-08T12:29:06;4.27;;;3.83;;
7110;SDS011;3597;42.650;23.386;2022-12-08T12:31:46;4.53;;;4.33;;
7110;SDS011;3597;42.650;23.386;2022-12-08T12:34:26;3.73;;;3.63;;
7110;SDS011;3597;42.650;23.386;2022-12-08T12:39:30;2.93;;;2.83;;
7110;SDS011;3597;42.650;23.386;2022-12-08T12:41:58;2.83;;;2.73;;
7110;SDS011;3597;42.650;23.386;2022-12-08T12:47:00;3.03;;;2.83;;
7110;SDS011;3597;42.650;23.386;2022-12-08T13:02:28;3.07;;;2.97;;
7110;SDS011;3597;42.650;23.386;2022-12-08T13:05:00;3.27;;;2.97;;
7110;SDS011;3597;42.650;23.386;2022-12-08T13:07:29;3.10;;;3.00;;
7110;SDS011;3597;42.650;23.386;2022-12-08T13:09:57;3.00;;;2.90;;
7110;SDS011;3597;42.650;23.386;2022-12-08T13:12:31;3.67;;;3.57;;
7110;SDS011;3597;42.650;23.386;2022-12-08T13:14:59;3.40;;;3.20;;
7110;SDS011;3597;42.650;23.386;2022-12-08T13:17:32;3.73;;;3.43;;
7110;SDS011;3597;42.650;23.386;2022-12-08T13:20:01;3.63;;;3.33;;
7110;SDS011;3597;42.650;23.386;2022-12-08T13:22:45;3.57;;;3.37;;
7110;SDS011;3597;42.650;23.386;2022-12-08T13:30:41;3.67;;;3.57;;
7110;SDS011;3597;42.650;23.386;2022-12-08T13:36:10;4.40;;;4.00;;
7110;SDS011;3597;42.650;23.386;2022-12-08T13:38:42;3.70;;;3.43;;
7110;SDS011;3597;42.650;23.386;2022-12-08T13:41:12;3.47;;;3.23;;
7110;SDS011;3597;42.650;23.386;2022-12-08T13:46:15;3.50;;;3.40;;
7110;SDS011;3597;42.650;23.386;2022-12-08T13:48:51;4.20;;;4.03;;
7110;SDS011;3597;42.650;23.386;2022-12-08T13:51:19;6.17;;;5.87;;
7110;SDS011;3597;42.650;23.386;2022-12-08T13:54:05;3.27;;;3.17;;
7110;SDS011;3597;42.650;23.386;2022-12-08T13:56:34;3.57;;;3.37;;
7110;SDS011;3597;42.650;23.386;2022-12-08T13:59:05;3.47;;;3.27;;
7110;SDS011;3597;42.650;23.386;2022-12-08T14:01:32;3.53;;;3.40;;
7110;SDS011;3597;42.650;23.386;2022-12-08T14:04:11;4.00;;;3.80;;
7110;SDS011;3597;42.650;23.386;2022-12-08T14:06:40;3.67;;;3.47;;
7110;SDS011;3597;42.650;23.386;2022-12-08T14:09:12;3.60;;;3.50;;
7110;SDS011;3597;42.650;23.386;2022-12-08T14:11:40;3.60;;;3.50;;
7110;SDS011;3597;42.650;23.386;2022-12-08T14:14:26;3.30;;;3.20;;
7110;SDS011;3597;42.650;23.386;2022-12-08T14:16:59;4.17;;;3.50;;
7110;SDS011;3597;42.650;23.386;2022-12-08T14:19:27;3.90;;;3.70;;
7110;SDS011;3597;42.650;23.386;2022-12-08T14:21:58;3.50;;;3.30;;
7110;SDS011;3597;42.650;23.386;2022-12-08T14:24:25;3.63;;;3.43;;
7110;SDS011;3597;42.650;23.386;2022-12-08T14:26:52;4.53;;;4.23;;
7110;SDS011;3597;42.650;23.386;2022-12-08T14:29:32;4.47;;;4.27;;
7110;SDS011;3597;42.650;23.386;2022-12-08T14:37:26;3.87;;;3.63;;
7110;SDS011;3597;42.650;23.386;2022-12-08T14:40:03;4.40;;;4.20;;
7110;SDS011;3597;42.650;23.386;2022-12-08T14:42:30;4.37;;;4.07;;
7110;SDS011;3597;42.650;23.386;2022-12-08T14:45:08;6.27;;;4.50;;
7110;SDS011;3597;42.650;23.386;2022-12-08T14:47:35;7.70;;;4.80;;
7110;SDS011;3597;42.650;23.386;2022-12-08T14:50:02;4.60;;;4.40;;
7110;SDS011;3597;42.650;23.386;2022-12-08T14:52:29;4.27;;;4.07;;
7110;SDS011;3597;42.650;23.386;2022-12-08T14:54:55;4.67;;;4.57;;
7110;SDS011;3597;42.650;23.386;2022-12-08T14:57:21;5.23;;;4.97;;
7110;SDS011;3597;42.650;23.386;2022-12-08T14:59:46;5.50;;;5.20;;
7110;SDS011;3597;42.650;23.386;2022-12-08T15:04:46;5.40;;;4.73;;
7110;SDS011;3597;42.650;23.386;2022-12-08T15:07:17;5.40;;;5.20;;
7110;SDS011;3597;42.650;23.386;2022-12-08T15:09:44;5.37;;;4.97;;
7110;SDS011;3597;42.650;23.386;2022-12-08T15:17:33;8.90;;;6.13;;
7110;SDS011;3597;42.650;23.386;2022-12-08T15:20:02;6.17;;;5.83;;
7110;SDS011;3597;42.650;23.386;2022-12-08T15:22:28;7.70;;;6.20;;
7110;SDS011;3597;42.650;23.386;2022-12-08T15:24:54;6.70;;;6.30;;
7110;SDS011;3597;42.650;23.386;2022-12-08T15:27:20;7.00;;;6.73;;
7110;SDS011;3597;42.650;23.386;2022-12-08T15:29:46;6.97;;;6.67;;
7110;SDS011;3597;42.650;23.386;2022-12-08T15:32:12;7.20;;;6.80;;
7110;SDS011;3597;42.650;23.386;2022-12-08T15:34:41;6.97;;;6.70;;
7110;SDS011;3597;42.650;23.386;2022-12-08T15:37:20;9.77;;;9.17;;
7110;SDS011;3597;42.650;23.386;2022-12-08T15:39:47;8.13;;;7.63;;
7110;SDS011;3597;42.650;23.386;2022-12-08T15:42:12;7.40;;;7.07;;
7110;SDS011;3597;42.650;23.386;2022-12-08T15:44:38;15.13;;;14.30;;
7110;SDS011;3597;42.650;23.386;2022-12-08T15:47:03;12.93;;;10.70;;
7110;SDS011;3597;42.650;23.386;2022-12-08T15:49:29;7.50;;;7.20;;
7110;SDS011;3597;42.650;23.386;2022-12-08T15:51:55;8.70;;;8.03;;
7110;SDS011;3597;42.650;23.386;2022-12-08T15:54:20;6.57;;;6.17;;
7110;SDS011;3597;42.650;23.386;2022-12-08T15:56:49;8.70;;;8.27;;
7110;SDS011;3597;42.650;23.386;2022-12-08T15:59:18;10.13;;;9.57;;
7110;SDS011;3597;42.650;23.386;2022-12-08T16:01:46;7.70;;;7.40;;
7110;SDS011;3597;42.650;23.386;2022-12-08T16:04:15;7.10;;;6.60;;
7110;SDS011;3597;42.650;23.386;2022-12-08T16:06:44;8.37;;;7.87;;
7110;SDS011;3597;42.650;23.386;2022-12-08T16:09:14;7.47;;;7.07;;
7110;SDS011;3597;42.650;23.386;2022-12-08T16:11:42;6.20;;;5.93;;
7110;SDS011;3597;42.650;23.386;2022-12-08T16:14:26;5.07;;;4.77;;
7110;SDS011;3597;42.650;23.386;2022-12-08T16:16:51;5.70;;;5.10;;
7110;SDS011;3597;42.650;23.386;2022-12-08T16:19:16;6.07;;;5.67;;
7110;SDS011;3597;42.650;23.386;2022-12-08T16:21:42;5.70;;;5.50;;
7110;SDS011;3597;42.650;23.386;2022-12-08T16:24:07;4.97;;;4.73;;
7110;SDS011;3597;42.650;23.386;2022-12-08T16:26:32;5.60;;;5.37;;
7110;SDS011;3597;42.650;23.386;2022-12-08T16:28:58;5.07;;;4.83;;
7110;SDS011;3597;42.650;23.386;2022-12-08T16:31:23;5.13;;;4.83;;
7110;SDS011;3597;42.650;23.386;2022-12-08T16:33:48;4.37;;;4.17;;
7110;SDS011;3597;42.650;23.386;2022-12-08T16:36:14;4.87;;;4.57;;
7110;SDS011;3597;42.650;23.386;2022-12-08T16:38:39;4.23;;;4.03;;
7110;SDS011;3597;42.650;23.386;2022-12-08T16:41:04;3.73;;;3.63;;
7110;SDS011;3597;42.650;23.386;2022-12-08T16:43:48;4.40;;;3.33;;
7110;SDS011;3597;42.650;23.386;2022-12-08T16:46:19;3.83;;;3.67;;
7110;SDS011;3597;42.650;23.386;2022-12-08T16:48:47;4.13;;;3.93;;
7110;SDS011;3597;42.650;23.386;2022-12-08T16:51:14;3.17;;;3.07;;
7110;SDS011;3597;42.650;23.386;2022-12-08T16:53:43;4.00;;;3.80;;
7110;SDS011;3597;42.650;23.386;2022-12-08T16:56:13;2.93;;;2.83;;
7110;SDS011;3597;42.650;23.386;2022-12-08T16:58:40;3.57;;;3.37;;